createdAt,value
2022-11-15T00:01:41.795Z,95203.38
2022-11-15T00:04:26.967Z,95207.69
2022-11-15T00:07:17.957Z,95208.00
2022-11-15T00:10:12.665Z,95203.66
2022-11-15T00:12:58.200Z,95202.88
2022-11-15T00:15:43.481Z,95195.91
2022-11-15T00:18:30.080Z,95206.69
2022-11-15T00:21:15.468Z,95204.34
2022-11-15T00:24:00.434Z,95201.50
2022-11-15T00:26:45.665Z,95195.84
2022-11-15T00:29:31.041Z,95200.56
2022-11-15T00:32:16.109Z,95203.41
2022-11-15T00:35:01.434Z,95201.44
2022-11-15T00:37:48.330Z,95195.84
2022-11-15T00:40:33.691Z,95189.88
2022-11-15T00:43:19.248Z,95183.69
2022-11-15T00:46:04.555Z,95189.00
2022-11-15T00:48:49.913Z,95180.25
2022-11-15T00:51:34.912Z,95184.19
2022-11-15T00:54:20.278Z,95176.66
2022-11-15T00:57:05.733Z,95169.41
2022-11-15T00:59:50.562Z,95165.13
2022-11-15T01:02:35.972Z,95157.69
2022-11-15T01:05:21.523Z,95156.88
2022-11-15T01:08:06.793Z,95155.38
2022-11-15T01:10:52.192Z,95148.97
2022-11-15T01:13:38.863Z,95143.81
2022-11-15T01:16:23.987Z,95138.19
2022-11-15T01:19:09.264Z,95135.16
2022-11-15T01:21:54.547Z,95135.16
2022-11-15T01:24:39.953Z,95132.91
2022-11-15T01:27:25.260Z,95127.44
2022-11-15T01:30:10.844Z,95129.25
2022-11-15T01:32:55.981Z,95132.78
2022-11-15T01:35:41.452Z,95133.06
2022-11-15T01:38:26.688Z,95127.84
2022-11-15T01:41:20.483Z,95118.28
2022-11-15T01:44:43.471Z,95118.34
2022-11-15T01:47:40.513Z,95118.66
2022-11-15T01:50:33.216Z,95106.94
2022-11-15T01:53:21.031Z,95116.31
2022-11-15T01:56:17.677Z,95101.88
2022-11-15T01:59:06.536Z,95098.25
2022-11-15T02:01:52.031Z,95097.22
2022-11-15T02:04:42.439Z,95094.56
2022-11-15T02:07:29.211Z,95099.28
2022-11-15T02:10:18.962Z,95096.66
2022-11-15T02:13:04.172Z,95097.84
2022-11-15T02:16:11.282Z,95091.53
2022-11-15T02:19:02.414Z,95096.38
2022-11-15T02:22:17.686Z,95089.28
2022-11-15T02:25:14.727Z,95093.59
2022-11-15T02:28:23.548Z,95086.50
2022-11-15T02:31:31.431Z,95080.47
2022-11-15T02:34:38.622Z,95081.16
2022-11-15T02:37:47.694Z,95078.53
2022-11-15T02:40:50.922Z,95068.53
2022-11-15T02:43:58.883Z,95069.06
2022-11-15T02:47:15.496Z,95075.16
2022-11-15T02:50:07.551Z,95071.19
2022-11-15T02:52:53.043Z,95073.81
2022-11-15T02:55:52.708Z,95068.13
2022-11-15T02:59:00.328Z,95067.91
2022-11-15T03:02:09.101Z,95064.94
2022-11-15T03:04:59.153Z,95056.06
2022-11-15T03:08:00.904Z,95056.22
2022-11-15T03:11:05.044Z,95051.59
2022-11-15T03:14:18.593Z,95052.34
2022-11-15T03:17:20.034Z,95053.00
2022-11-15T03:20:09.532Z,95049.38
2022-11-15T03:22:59.220Z,95039.13
2022-11-15T03:25:49.422Z,95055.69
2022-11-15T03:28:43.159Z,95044.44
2022-11-15T03:31:51.767Z,95036.69
2022-11-15T03:35:07.851Z,95034.00
2022-11-15T03:38:24.303Z,95028.97
2022-11-15T03:41:21.048Z,95028.59
2022-11-15T03:44:34.086Z,95032.59
2022-11-15T03:47:30.121Z,95031.78
2022-11-15T03:50:19.482Z,95025.22
2022-11-15T03:53:04.640Z,95021.50
2022-11-15T03:55:50.027Z,95020.84
2022-11-15T03:58:35.635Z,95015.03
2022-11-15T04:01:21.176Z,95016.47
2022-11-15T04:04:06.357Z,95018.38
2022-11-15T04:06:51.686Z,95011.63
2022-11-15T04:09:56.935Z,95007.06
2022-11-15T04:12:47.193Z,95004.66
2022-11-15T04:15:32.938Z,95004.56
2022-11-15T04:18:18.134Z,95002.22
2022-11-15T04:21:22.101Z,95007.03
2022-11-15T04:24:13.270Z,95011.88
2022-11-15T04:26:58.560Z,95004.09
2022-11-15T04:29:43.853Z,94999.41
2022-11-15T04:32:29.323Z,95001.53
2022-11-15T04:35:14.728Z,95005.19
2022-11-15T04:38:00.894Z,94997.75
2022-11-15T04:40:45.902Z,95004.19
2022-11-15T04:43:31.691Z,94995.03
2022-11-15T04:46:17.041Z,94996.06
2022-11-15T04:49:02.355Z,94981.19
2022-11-15T04:51:47.859Z,94994.69
2022-11-15T04:54:33.282Z,94979.88
2022-11-15T04:57:18.563Z,94986.38
2022-11-15T05:00:06.962Z,94984.69
2022-11-15T05:03:11.114Z,94971.28
2022-11-15T05:05:56.330Z,94980.31
2022-11-15T05:08:41.611Z,94964.09
2022-11-15T05:11:28.157Z,94959.00
2022-11-15T05:14:13.722Z,94962.13
2022-11-15T05:16:59.190Z,94960.28
2022-11-15T05:19:45.566Z,94967.44
2022-11-15T05:22:31.155Z,94960.19
2022-11-15T05:25:16.576Z,94947.91
2022-11-15T05:28:01.973Z,94946.16
2022-11-15T05:30:47.669Z,94956.69
2022-11-15T05:33:34.915Z,94957.56
2022-11-15T05:36:39.468Z,94963.66
2022-11-15T05:39:24.772Z,94950.81
2022-11-15T05:42:15.289Z,94959.63
2022-11-15T05:45:03.286Z,94940.81
2022-11-15T05:47:49.871Z,94940.31
2022-11-15T05:50:37.600Z,94935.44
2022-11-15T05:53:25.181Z,94934.72
2022-11-15T05:56:10.934Z,94935.78
2022-11-15T05:58:59.762Z,94939.72
2022-11-15T06:01:45.015Z,94941.59
2022-11-15T06:04:30.334Z,94935.78
2022-11-15T06:07:15.709Z,94935.72
2022-11-15T06:10:00.872Z,94930.50
2022-11-15T06:12:46.293Z,94927.81
2022-11-15T06:15:34.741Z,94931.63
2022-11-15T06:18:19.996Z,94927.38
2022-11-15T06:21:06.408Z,94919.88
2022-11-15T06:23:51.704Z,94922.16
2022-11-15T06:26:36.934Z,94923.41
2022-11-15T06:29:22.267Z,94924.47
2022-11-15T06:32:08.113Z,94936.22
2022-11-15T06:34:53.408Z,94922.06
2022-11-15T06:37:38.649Z,94927.63
2022-11-15T06:40:23.953Z,94924.72
2022-11-15T06:43:09.255Z,94926.97
2022-11-15T06:45:54.812Z,94924.16
2022-11-15T06:48:40.618Z,94931.28
2022-11-15T06:51:25.736Z,94933.44
2022-11-15T06:54:10.911Z,94933.25
2022-11-15T06:56:56.212Z,94933.06
2022-11-15T06:59:41.414Z,94930.97
2022-11-15T07:02:27.088Z,94923.22
2022-11-15T07:05:13.444Z,94933.75
2022-11-15T07:07:59.430Z,94936.88
2022-11-15T07:10:44.432Z,94938.09
2022-11-15T07:13:34.667Z,94945.38
2022-11-15T07:16:20.308Z,94946.88
2022-11-15T07:19:05.637Z,94954.19
2022-11-15T07:21:50.924Z,94963.16
2022-11-15T07:24:36.211Z,94956.41
2022-11-15T07:27:21.491Z,94953.88
2022-11-15T07:30:07.288Z,94950.31
2022-11-15T07:32:57.315Z,94936.25
2022-11-15T07:35:43.597Z,94943.03
2022-11-15T07:38:29.835Z,94934.09
2022-11-15T07:41:15.158Z,94933.69
2022-11-15T07:44:01.440Z,94928.38
2022-11-15T07:46:46.925Z,94932.00
2022-11-15T07:49:32.324Z,94924.75
2022-11-15T07:52:17.547Z,94917.25
2022-11-15T07:55:03.729Z,94920.88
2022-11-15T07:57:49.030Z,94905.09
2022-11-15T08:00:35.385Z,94895.81
2022-11-15T08:03:20.360Z,94899.44
2022-11-15T08:06:06.028Z,94894.22
2022-11-15T08:08:51.095Z,94884.53
2022-11-15T08:11:36.485Z,94887.16
2022-11-15T08:14:22.970Z,94882.75
2022-11-15T08:17:08.004Z,94875.00
2022-11-15T08:19:53.477Z,94874.97
2022-11-15T08:22:38.727Z,94869.19
2022-11-15T08:25:27.212Z,94863.91
2022-11-15T08:28:12.408Z,94860.69
2022-11-15T08:30:57.732Z,94860.16
2022-11-15T08:33:43.656Z,94858.19
2022-11-15T08:36:34.824Z,94863.84
2022-11-15T08:39:27.016Z,94866.34
2022-11-15T08:42:16.963Z,94866.22
2022-11-15T08:45:05.424Z,94866.88
2022-11-15T08:47:54.196Z,94874.50
2022-11-15T08:50:39.861Z,94872.25
2022-11-15T08:53:25.201Z,94873.78
2022-11-15T08:56:12.221Z,94864.56
2022-11-15T08:58:57.520Z,94865.47
2022-11-15T09:01:42.964Z,94855.72
2022-11-15T09:04:28.431Z,94863.06
2022-11-15T09:07:14.649Z,94846.31
2022-11-15T09:10:00.152Z,94837.78
2022-11-15T09:12:45.305Z,94838.28
2022-11-15T09:15:30.591Z,94831.81
2022-11-15T09:18:15.830Z,94822.66
2022-11-15T09:21:03.085Z,94820.78
2022-11-15T09:23:51.471Z,94819.09
2022-11-15T09:26:36.772Z,94815.09
2022-11-15T09:29:22.285Z,94817.03
2022-11-15T09:32:07.592Z,94816.91
2022-11-15T09:34:52.930Z,94803.56
2022-11-15T09:37:38.557Z,94799.94
2022-11-15T09:40:23.886Z,94803.03
2022-11-15T09:43:42.209Z,94805.09
2022-11-15T09:46:41.333Z,94799.41
2022-11-15T09:49:34.061Z,94792.06
2022-11-15T09:52:13.737Z,94789.59
2022-11-15T09:54:54.037Z,94782.69
2022-11-15T09:57:24.260Z,94771.22
2022-11-15T10:00:07.851Z,94775.06
2022-11-15T10:03:16.122Z,94774.00
2022-11-15T10:05:46.418Z,94779.44
2022-11-15T10:08:38.027Z,94768.84
2022-11-15T10:13:58.279Z,94764.84
2022-11-15T10:16:56.163Z,94769.41
2022-11-15T10:19:47.492Z,94758.16
2022-11-15T10:22:36.236Z,94755.03
2022-11-15T10:25:41.328Z,94751.06
2022-11-15T10:28:22.891Z,94745.69
2022-11-15T10:30:55.478Z,94745.97
2022-11-15T10:33:40.159Z,94726.75
2022-11-15T10:36:09.595Z,94724.91
2022-11-15T10:39:05.312Z,94721.56
2022-11-15T10:41:37.094Z,94722.84
2022-11-15T10:44:12.528Z,94713.66
2022-11-15T10:46:48.898Z,94708.97
2022-11-15T10:49:23.393Z,94708.28
2022-11-15T10:51:57.656Z,94699.75
2022-11-15T10:54:25.561Z,94691.34
2022-11-15T10:56:55.727Z,94682.53
2022-11-15T10:59:34.897Z,94686.97
2022-11-15T11:02:38.942Z,94687.47
2022-11-15T11:05:26.380Z,94677.97
2022-11-15T11:08:05.599Z,94671.94
2022-11-15T11:10:52.252Z,94674.03
2022-11-15T11:13:29.108Z,94664.94
2022-11-15T11:16:14.461Z,94668.00
2022-11-15T11:19:13.335Z,94653.91
2022-11-15T11:22:01.262Z,94655.38
2022-11-15T11:24:53.312Z,94649.13
2022-11-15T11:27:38.101Z,94644.88
2022-11-15T11:30:33.002Z,94637.69
2022-11-15T11:33:10.869Z,94631.50
2022-11-15T11:36:04.820Z,94618.09
2022-11-15T11:39:09.136Z,94625.09
2022-11-15T11:41:49.575Z,94631.03
2022-11-15T11:44:44.699Z,94623.03
2022-11-15T11:47:34.682Z,94619.28
2022-11-15T11:50:14.286Z,94621.75
2022-11-15T11:53:25.355Z,94620.38
2022-11-15T11:55:59.783Z,94627.44
2022-11-15T11:58:43.875Z,94615.13
2022-11-15T12:01:16.110Z,94603.72
2022-11-15T12:04:31.547Z,94608.06
2022-11-15T12:07:05.454Z,94597.59
2022-11-15T12:09:45.028Z,94588.56
2022-11-15T12:12:26.010Z,94589.63
2022-11-15T12:15:01.959Z,94597.25
2022-11-15T12:17:33.616Z,94598.75
2022-11-15T12:20:10.214Z,94599.44
2022-11-15T12:22:54.430Z,94592.94
2022-11-15T12:25:20.824Z,94590.38
2022-11-15T12:27:56.674Z,94586.47
2022-11-15T12:30:26.264Z,94589.72
2022-11-15T12:33:01.236Z,94591.66
2022-11-15T12:35:38.031Z,94587.09
2022-11-15T12:38:05.178Z,94582.06
2022-11-15T12:40:34.588Z,94569.22
2022-11-15T12:43:16.215Z,94564.47
2022-11-15T12:45:47.058Z,94574.50
2022-11-15T12:48:16.698Z,94574.00
2022-11-15T12:50:55.465Z,94561.97
2022-11-15T12:53:25.422Z,94571.66
2022-11-15T12:56:04.301Z,94560.94
2022-11-15T12:58:44.728Z,94561.63
2022-11-15T13:01:11.642Z,94555.19
2022-11-15T13:04:17.275Z,94548.41
2022-11-15T13:06:47.003Z,94546.31
2022-11-15T13:09:38.577Z,94542.22
2022-11-15T13:12:09.983Z,94548.97
2022-11-15T13:14:44.381Z,94541.75
2022-11-15T13:17:22.531Z,94549.00
2022-11-15T13:19:59.681Z,94543.09
2022-11-15T13:22:51.570Z,94550.72
2022-11-15T13:25:49.820Z,94549.44
2022-11-15T13:28:23.554Z,94553.53
2022-11-15T13:30:56.113Z,94549.59
2022-11-15T13:33:35.986Z,94556.06
2022-11-15T13:36:08.365Z,94545.44
2022-11-15T13:38:37.176Z,94544.53
2022-11-15T13:41:24.201Z,94542.66
2022-11-15T13:43:52.620Z,94539.03
2022-11-15T13:46:22.554Z,94533.31
2022-11-15T13:48:59.484Z,94539.50
2022-11-15T13:51:35.491Z,94545.16
2022-11-15T13:54:13.088Z,94542.19
2022-11-15T13:56:44.930Z,94545.19
2022-11-15T13:59:18.708Z,94548.59
2022-11-15T14:01:45.492Z,94548.75
2022-11-15T14:04:15.828Z,94549.84
2022-11-15T14:06:49.830Z,94547.75
2022-11-15T14:09:36.325Z,94551.56
2022-11-15T14:12:22.706Z,94552.72
2022-11-15T14:14:49.464Z,94557.91
2022-11-15T14:17:36.105Z,94550.03
2022-11-15T14:20:19.700Z,94549.13
2022-11-15T14:22:58.471Z,94550.84
2022-11-15T14:25:30.716Z,94543.44
2022-11-15T14:28:40.124Z,94554.09
2022-11-15T14:31:13.929Z,94552.22
2022-11-15T14:33:40.468Z,94545.53
2022-11-15T14:36:18.882Z,94544.50
2022-11-15T14:38:45.522Z,94544.97
2022-11-15T14:41:27.326Z,94557.81
2022-11-15T14:43:54.287Z,94554.06
2022-11-15T14:46:20.852Z,94550.88
2022-11-15T14:48:47.408Z,94546.63
2022-11-15T14:51:16.628Z,94555.59
2022-11-15T14:53:44.608Z,94551.03
2022-11-15T14:56:11.550Z,94544.72
2022-11-15T14:58:38.292Z,94543.91
2022-11-15T15:01:19.834Z,94536.53
2022-11-15T15:03:46.412Z,94537.88
2022-11-15T15:06:17.874Z,94535.97
2022-11-15T15:08:52.727Z,94543.44
2022-11-15T15:11:28.724Z,94541.34
2022-11-15T15:13:58.135Z,94546.78
2022-11-15T15:16:25.423Z,94538.19
2022-11-15T15:18:52.141Z,94542.38
2022-11-15T15:21:31.018Z,94541.03
2022-11-15T15:24:02.836Z,94537.63
2022-11-15T15:26:29.398Z,94535.47
2022-11-15T15:28:55.956Z,94543.28
2022-11-15T15:31:22.521Z,94537.16
2022-11-15T15:33:49.125Z,94549.19
2022-11-15T15:36:19.762Z,94553.09
2022-11-15T15:38:47.557Z,94548.66
2022-11-15T15:41:17.852Z,94547.19
2022-11-15T15:43:44.823Z,94547.81
2022-11-15T15:46:14.625Z,94549.03
2022-11-15T15:48:41.586Z,94546.00
2022-11-15T15:51:14.315Z,94541.09
2022-11-15T15:53:46.380Z,94543.75
2022-11-15T15:56:12.893Z,94550.69
2022-11-15T15:58:39.455Z,94541.56
2022-11-15T16:01:07.552Z,94542.19
2022-11-15T16:03:36.257Z,94532.41
2022-11-15T16:06:05.128Z,94526.34
2022-11-15T16:08:42.655Z,94537.31
2022-11-15T16:11:18.151Z,94526.34
2022-11-15T16:13:45.242Z,94529.41
2022-11-15T16:16:14.012Z,94526.56
2022-11-15T16:18:40.521Z,94521.47
2022-11-15T16:21:09.303Z,94515.59
2022-11-15T16:23:35.835Z,94511.53
2022-11-15T16:26:03.943Z,94509.91
2022-11-15T16:28:33.292Z,94514.56
2022-11-15T16:31:08.163Z,94503.81
2022-11-15T16:33:40.924Z,94499.09
2022-11-15T16:36:30.409Z,94497.47
2022-11-15T16:38:58.414Z,94501.53
2022-11-15T16:41:24.947Z,94500.91
2022-11-15T16:43:52.093Z,94493.19
2022-11-15T16:46:27.397Z,94488.09
2022-11-15T16:48:54.824Z,94483.22
2022-11-15T16:51:22.165Z,94479.38
2022-11-15T16:53:49.886Z,94483.03
2022-11-15T16:56:22.599Z,94477.09
2022-11-15T16:58:49.180Z,94479.75
2022-11-15T17:01:23.065Z,94475.47
2022-11-15T17:03:49.487Z,94467.34
2022-11-15T17:06:18.248Z,94469.53
2022-11-15T17:08:46.012Z,94468.09
2022-11-15T17:11:21.266Z,94463.44
2022-11-15T17:13:49.417Z,94475.41
2022-11-15T17:16:17.597Z,94473.16
2022-11-15T17:18:50.014Z,94473.78
2022-11-15T17:21:18.624Z,94475.41
2022-11-15T17:23:45.628Z,94466.59
2022-11-15T17:26:33.105Z,94462.72
2022-11-15T17:29:04.464Z,94467.03
2022-11-15T17:31:33.599Z,94458.84
2022-11-15T17:34:05.182Z,94460.88
2022-11-15T17:36:32.142Z,94463.09
2022-11-15T17:38:59.976Z,94458.63
2022-11-15T17:41:27.934Z,94449.69
2022-11-15T17:43:57.863Z,94448.50
2022-11-15T17:46:24.709Z,94447.59
2022-11-15T17:48:51.300Z,94440.75
2022-11-15T17:51:18.967Z,94453.72
2022-11-15T17:53:47.215Z,94452.59
2022-11-15T17:56:16.409Z,94443.91
2022-11-15T17:58:48.313Z,94445.88
2022-11-15T18:01:30.349Z,94432.88
2022-11-15T18:04:00.324Z,94437.72
2022-11-15T18:06:30.382Z,94430.03
2022-11-15T18:08:57.456Z,94428.38
2022-11-15T18:11:44.431Z,94419.69
2022-11-15T18:14:14.814Z,94411.13
2022-11-15T18:16:41.930Z,94408.91
2022-11-15T18:19:13.018Z,94411.53
2022-11-15T18:21:57.248Z,94409.50
2022-11-15T18:24:24.348Z,94406.47
2022-11-15T18:26:51.287Z,94410.25
2022-11-15T18:29:18.347Z,94400.31
2022-11-15T18:31:47.828Z,94401.00
2022-11-15T18:34:14.616Z,94406.66
2022-11-15T18:36:41.645Z,94403.50
2022-11-15T18:39:16.115Z,94404.91
2022-11-15T18:41:44.700Z,94395.44
2022-11-15T18:44:11.270Z,94398.22
2022-11-15T18:46:39.183Z,94390.47
2022-11-15T18:49:09.423Z,94392.56
2022-11-15T18:51:41.698Z,94385.59
2022-11-15T18:54:10.774Z,94387.91
2022-11-15T18:56:38.049Z,94377.19
2022-11-15T18:59:05.393Z,94384.06
2022-11-15T19:01:37.682Z,94386.03
2022-11-15T19:04:09.984Z,94372.50
2022-11-15T19:06:42.261Z,94376.78
2022-11-15T19:09:10.680Z,94375.88
2022-11-15T19:11:39.491Z,94368.44
2022-11-15T19:14:08.606Z,94369.81
2022-11-15T19:16:38.526Z,94377.91
2022-11-15T19:19:13.233Z,94369.19
2022-11-15T19:21:39.828Z,94365.31
2022-11-15T19:24:06.526Z,94359.00
2022-11-15T19:26:33.155Z,94360.69
2022-11-15T19:29:01.856Z,94365.72
2022-11-15T19:31:31.322Z,94346.31
2022-11-15T19:34:04.538Z,94351.75
2022-11-15T19:36:37.447Z,94349.47
2022-11-15T19:39:09.057Z,94349.16
2022-11-15T19:41:38.321Z,94349.75
2022-11-15T19:44:05.655Z,94350.44
2022-11-15T19:46:32.423Z,94340.56
2022-11-15T19:48:59.141Z,94344.72
2022-11-15T19:51:29.240Z,94355.09
2022-11-15T19:53:59.260Z,94352.25
2022-11-15T19:56:25.864Z,94348.69
2022-11-15T19:58:54.211Z,94335.56
2022-11-15T20:01:22.113Z,94335.50
2022-11-15T20:03:50.160Z,94326.84
2022-11-15T20:06:22.022Z,94323.78
2022-11-15T20:08:48.672Z,94327.91
2022-11-15T20:11:16.280Z,94319.22
2022-11-15T20:13:43.453Z,94320.78
2022-11-15T20:16:17.152Z,94317.31
2022-11-15T20:18:43.984Z,94315.75
2022-11-15T20:21:10.945Z,94306.06
2022-11-15T20:23:38.347Z,94310.31
2022-11-15T20:26:07.609Z,94309.06
2022-11-15T20:28:36.588Z,94309.47
2022-11-15T20:31:03.627Z,94310.94
2022-11-15T20:33:30.296Z,94309.94
2022-11-15T20:35:56.872Z,94303.88
2022-11-15T20:38:23.509Z,94294.53
2022-11-15T20:40:56.001Z,94289.50
2022-11-15T20:43:25.633Z,94298.91
2022-11-15T20:45:52.156Z,94290.44
2022-11-15T20:48:18.744Z,94286.44
2022-11-15T20:50:47.056Z,94285.22
2022-11-15T20:53:16.191Z,94280.00
2022-11-15T20:55:47.872Z,94273.00
2022-11-15T20:58:15.505Z,94272.16
2022-11-15T21:00:43.221Z,94267.81
2022-11-15T21:03:10.278Z,94260.56
2022-11-15T21:05:42.341Z,94262.00
2022-11-15T21:08:09.962Z,94253.72
2022-11-15T21:10:55.272Z,94252.13
2022-11-15T21:13:22.045Z,94251.66
2022-11-15T21:15:48.829Z,94236.88
2022-11-15T21:18:15.646Z,94239.69
2022-11-15T21:20:42.752Z,94241.28
2022-11-15T21:23:09.360Z,94241.13
2022-11-15T21:25:35.880Z,94237.06
2022-11-15T21:28:02.851Z,94235.06
2022-11-15T21:30:29.527Z,94226.97
2022-11-15T21:32:56.054Z,94215.44
2022-11-15T21:35:23.704Z,94208.75
2022-11-15T21:37:56.072Z,94209.56
2022-11-15T21:40:23.676Z,94209.38
2022-11-15T21:42:50.633Z,94203.69
2022-11-15T21:45:17.175Z,94198.88
2022-11-15T21:47:46.318Z,94191.59
2022-11-15T21:50:13.776Z,94182.31
2022-11-15T21:52:40.567Z,94192.22
2022-11-15T21:55:07.953Z,94189.81
2022-11-15T21:57:34.632Z,94177.00
2022-11-15T22:00:19.642Z,94176.97
2022-11-15T22:02:46.239Z,94173.50
2022-11-15T22:05:12.945Z,94176.38
2022-11-15T22:07:39.582Z,94165.03
2022-11-15T22:10:06.525Z,94164.38
2022-11-15T22:12:33.078Z,94156.50
2022-11-15T22:14:59.776Z,94154.06
2022-11-15T22:17:46.276Z,94151.44
2022-11-15T22:20:37.706Z,94149.19
2022-11-15T22:23:00.096Z,94151.22
2022-11-15T22:25:26.797Z,94151.44
2022-11-15T22:27:53.883Z,94144.13
2022-11-15T22:30:20.935Z,94155.03
2022-11-15T22:32:47.533Z,94146.34
2022-11-15T22:35:14.653Z,94143.72
2022-11-15T22:37:41.542Z,94142.72
2022-11-15T22:40:08.819Z,94146.31
2022-11-15T22:42:35.391Z,94142.47
2022-11-15T22:45:02.013Z,94150.72
2022-11-15T22:47:28.591Z,94152.38
2022-11-15T22:49:55.156Z,94146.50
2022-11-15T22:52:21.727Z,94137.78
2022-11-15T22:54:48.341Z,94128.88
2022-11-15T22:57:14.932Z,94134.75
2022-11-15T22:59:42.364Z,94136.72
2022-11-15T23:02:09.060Z,94138.28
2022-11-15T23:04:35.753Z,94126.97
2022-11-15T23:07:03.162Z,94134.09
2022-11-15T23:09:29.955Z,94120.69
2022-11-15T23:12:15.017Z,94125.75
2022-11-15T23:14:41.609Z,94122.38
2022-11-15T23:17:08.170Z,94119.59
2022-11-15T23:19:34.840Z,94118.16
2022-11-15T23:22:20.139Z,94120.88
2022-11-15T23:24:46.764Z,94120.28
2022-11-15T23:27:15.575Z,94112.84
2022-11-15T23:30:00.878Z,94104.78
2022-11-15T23:32:46.044Z,94094.47
2022-11-15T23:35:12.606Z,94094.25
2022-11-15T23:37:39.518Z,94086.53
2022-11-15T23:40:07.003Z,94083.13
2022-11-15T23:42:33.564Z,94078.50
2022-11-15T23:45:00.151Z,94067.44
2022-11-15T23:47:26.714Z,94060.72
2022-11-15T23:49:53.265Z,94060.28
2022-11-15T23:52:19.951Z,94042.97
2022-11-15T23:54:46.548Z,94053.47
2022-11-15T23:57:13.161Z,94033.25
2022-11-15T23:59:40.702Z,94027.63
